Terminal Aerodrome Forecast
Issued by NWS Omaha/Valley, NE

Home | Current Version | Previous Version | Graphics & Text | Print | Product List | Glossary On
Versions: 1 2 3 4 5 6 7 8 9 10 11 12 13 14 15 16 17 18 19 20 21 22 23 24 25 26 27 28 29 30 31 32 33 34 35 36 37 38 39 40 41 42 43
000
FTUS43 KOAX 052323
TAFOFK
TAF
KOFK 052323Z 0600/0624 17015KT P6SM BKN200
     FM060500 18014KT P6SM BKN100
      TEMPO 0605/0609 4SM -SHRA BKN035
     FM060900 20013KT P6SM OVC100
     FM061400 33014KT 5SM -SHRA BKN015
     FM061800 35018G25KT P6SM OVC025
     FM062100 36015G25KT P6SM BKN100=

USA.gov is the U.S. government's official web portal to all federal, state and local government web resources and services.